createdAt,value
2023-02-25T00:03:01.927Z,7.99
2023-02-25T00:06:17.580Z,7.99
2023-02-25T00:09:29.649Z,7.95
2023-02-25T00:12:42.369Z,7.95
2023-02-25T00:15:54.436Z,7.93
2023-02-25T00:19:07.182Z,7.90
2023-02-25T00:22:19.640Z,7.89
2023-02-25T00:25:32.333Z,7.86
2023-02-25T00:28:45.081Z,7.85
2023-02-25T00:31:57.136Z,7.84
2023-02-25T00:35:12.541Z,7.82
2023-02-25T00:38:25.072Z,7.82
2023-02-25T00:41:37.322Z,7.84
2023-02-25T00:44:52.856Z,7.82
2023-02-25T00:48:05.798Z,7.51
2023-02-25T00:51:20.561Z,7.30
2023-02-25T00:54:33.332Z,7.26
2023-02-25T00:57:46.094Z,7.21
2023-02-25T01:00:58.206Z,7.19
2023-02-25T01:04:10.862Z,7.12
2023-02-25T01:07:23.958Z,7.08
2023-02-25T01:10:37.239Z,7.08
2023-02-25T01:13:49.980Z,7.03
2023-02-25T01:17:03.360Z,6.96
2023-02-25T01:20:19.961Z,6.93
2023-02-25T01:23:32.241Z,6.85
2023-02-25T01:26:49.071Z,6.79
2023-02-25T01:30:01.172Z,6.80
2023-02-25T01:33:14.172Z,6.78
2023-02-25T01:36:26.268Z,6.79
2023-02-25T01:39:38.336Z,6.70
2023-02-25T01:42:51.142Z,6.69
2023-02-25T01:46:03.501Z,6.59
2023-02-25T01:49:20.987Z,6.52
2023-02-25T01:52:33.656Z,6.43
2023-02-25T01:55:47.318Z,6.36
2023-02-25T01:59:00.438Z,6.29
2023-02-25T02:02:15.302Z,6.33
2023-02-25T02:05:33.113Z,6.29
2023-02-25T02:08:46.878Z,6.23
2023-02-25T02:12:01.912Z,6.19
2023-02-25T02:15:20.212Z,6.20
2023-02-25T02:18:35.324Z,6.18
2023-02-25T02:22:02.742Z,6.11
2023-02-25T02:25:56.105Z,6.03
2023-02-25T02:29:46.041Z,6.00
2023-02-25T02:33:04.064Z,5.88
2023-02-25T02:36:22.286Z,5.79
2023-02-25T02:39:45.688Z,5.84
2023-02-25T02:43:15.679Z,5.75
2023-02-25T02:46:32.192Z,5.73
2023-02-25T02:49:49.920Z,5.70
2023-02-25T02:53:08.986Z,5.74
2023-02-25T02:56:25.436Z,5.80
2023-02-25T02:59:43.012Z,5.84
2023-02-25T03:03:00.764Z,5.87
2023-02-25T03:06:19.034Z,5.88
2023-02-25T03:09:36.356Z,5.90
2023-02-25T03:12:48.665Z,5.93
2023-02-25T03:16:02.193Z,5.92
2023-02-25T03:19:20.948Z,5.96
2023-02-25T03:22:39.404Z,6.00
2023-02-25T03:25:56.621Z,6.04
2023-02-25T03:29:09.135Z,6.09
2023-02-25T03:32:25.197Z,6.11
2023-02-25T03:35:40.626Z,6.16
2023-02-25T03:38:58.565Z,6.16
2023-02-25T03:42:15.792Z,6.19
2023-02-25T03:45:30.857Z,6.19
2023-02-25T03:48:46.654Z,6.21
2023-02-25T03:52:02.362Z,6.20
2023-02-25T03:55:18.649Z,6.19
2023-02-25T03:58:31.213Z,6.17
2023-02-25T04:01:44.489Z,6.11
2023-02-25T04:04:57.696Z,5.84
2023-02-25T04:08:13.096Z,5.36
2023-02-25T04:11:25.388Z,5.04
2023-02-25T04:14:37.872Z,4.89
2023-02-25T04:17:50.741Z,4.72
2023-02-25T04:21:02.709Z,4.60
2023-02-25T04:24:15.870Z,4.46
2023-02-25T04:27:27.878Z,4.30
2023-02-25T04:30:40.138Z,4.30
2023-02-25T04:33:53.462Z,4.31
2023-02-25T04:37:06.222Z,4.24
2023-02-25T04:40:23.980Z,4.23
2023-02-25T04:43:36.134Z,4.24
2023-02-25T04:46:51.119Z,4.25
2023-02-25T04:50:03.307Z,4.17
2023-02-25T04:53:15.360Z,4.11
2023-02-25T04:56:27.852Z,4.10
2023-02-25T04:59:40.193Z,4.01
2023-02-25T05:02:52.931Z,3.92
2023-02-25T05:06:05.424Z,3.93
2023-02-25T05:09:17.526Z,3.85
2023-02-25T05:12:29.727Z,3.89
2023-02-25T05:15:41.873Z,3.87
2023-02-25T05:18:54.866Z,3.85
2023-02-25T05:22:06.970Z,3.80
2023-02-25T05:25:19.165Z,3.70
2023-02-25T05:28:31.902Z,3.78
2023-02-25T05:31:45.494Z,3.81
2023-02-25T05:34:58.044Z,3.73
2023-02-25T05:38:10.157Z,3.76
2023-02-25T05:41:22.762Z,3.74
2023-02-25T05:44:35.051Z,3.70
2023-02-25T05:47:50.692Z,3.75
2023-02-25T05:51:10.859Z,3.66
2023-02-25T05:54:25.619Z,3.72
2023-02-25T05:57:40.765Z,3.76
2023-02-25T06:00:56.584Z,3.71
2023-02-25T06:04:09.019Z,3.69
2023-02-25T06:07:21.412Z,3.66
2023-02-25T06:10:36.178Z,3.66
2023-02-25T06:13:49.094Z,3.65
2023-02-25T06:17:02.168Z,3.64
2023-02-25T06:20:19.731Z,3.61
2023-02-25T06:23:34.410Z,3.56
2023-02-25T06:26:47.043Z,3.48
2023-02-25T06:30:02.068Z,3.49
2023-02-25T06:33:14.174Z,3.48
2023-02-25T06:36:27.144Z,3.49
2023-02-25T06:39:41.869Z,3.47
2023-02-25T06:42:54.118Z,3.48
2023-02-25T06:46:11.917Z,3.44
2023-02-25T06:49:24.741Z,3.49
2023-02-25T06:52:36.914Z,3.50
2023-02-25T06:55:48.899Z,3.50
2023-02-25T06:59:01.974Z,3.61
2023-02-25T07:02:16.917Z,3.64
2023-02-25T07:05:28.968Z,3.83
2023-02-25T07:08:41.225Z,4.43
2023-02-25T07:11:53.278Z,4.34
2023-02-25T07:15:05.917Z,4.26
2023-02-25T07:18:18.086Z,4.31
2023-02-25T07:21:31.004Z,4.60
2023-02-25T07:24:43.510Z,5.28
2023-02-25T07:27:55.561Z,5.37
2023-02-25T07:31:12.598Z,5.84
2023-02-25T07:34:24.676Z,6.44
2023-02-25T07:37:37.568Z,6.79
2023-02-25T07:40:49.599Z,6.77
2023-02-25T07:44:01.708Z,6.85
2023-02-25T07:47:13.729Z,7.22
2023-02-25T07:50:25.955Z,7.24
2023-02-25T07:53:38.299Z,7.22
2023-02-25T07:56:51.519Z,7.45
2023-02-25T08:00:04.679Z,7.24
2023-02-25T08:03:18.885Z,7.45
2023-02-25T08:06:31.985Z,7.49
2023-02-25T08:09:44.374Z,7.73
2023-02-25T08:12:56.708Z,7.95
2023-02-25T08:16:12.828Z,8.51
2023-02-25T08:19:24.883Z,8.45
2023-02-25T08:22:36.842Z,8.51
2023-02-25T08:39:55.010Z,8.06
2023-02-25T08:43:11.312Z,7.81
2023-02-25T08:46:31.333Z,7.63
2023-02-25T08:49:53.164Z,7.12
2023-02-25T08:53:12.992Z,6.92
2023-02-25T08:56:28.237Z,6.56
2023-02-25T08:59:42.994Z,6.45
2023-02-25T09:02:56.450Z,6.38
2023-02-25T09:06:10.539Z,6.15
2023-02-25T09:09:26.998Z,6.19
2023-02-25T09:12:38.966Z,6.26
2023-02-25T09:16:04.954Z,6.33
2023-02-25T09:19:18.650Z,7.93
2023-02-25T09:22:33.298Z,8.65
2023-02-25T09:25:48.005Z,8.66
2023-02-25T09:29:00.608Z,8.54
2023-02-25T09:32:15.607Z,9.91
2023-02-25T09:35:28.607Z,8.88
2023-02-25T09:38:41.306Z,8.03
2023-02-25T09:42:03.749Z,7.68
2023-02-25T09:45:22.546Z,7.44
2023-02-25T09:48:39.262Z,6.75
2023-02-25T09:51:56.807Z,6.84
2023-02-25T09:55:17.618Z,7.37
2023-02-25T09:58:40.986Z,7.71
2023-02-25T10:01:58.436Z,8.86
2023-02-25T10:05:28.365Z,10.14
2023-02-25T10:08:47.824Z,8.47
2023-02-25T10:12:10.195Z,7.68
2023-02-25T10:15:39.229Z,7.42
2023-02-25T10:19:03.795Z,7.17
2023-02-25T10:22:49.199Z,6.95
2023-02-25T10:26:09.259Z,6.64
2023-02-25T10:29:28.269Z,6.85
2023-02-25T10:32:43.253Z,7.68
2023-02-25T10:36:01.012Z,7.92
2023-02-25T10:39:15.877Z,8.09
2023-02-25T10:58:44.394Z,7.42
2023-02-25T11:05:46.887Z,7.08
2023-02-25T11:13:29.807Z,6.96
2023-02-25T11:16:44.545Z,7.11
2023-02-25T11:24:21.618Z,6.94
2023-02-25T11:27:43.745Z,6.86
2023-02-25T11:34:40.507Z,6.83
2023-02-25T11:58:24.257Z,6.59
2023-02-25T12:02:26.772Z,6.50
2023-02-25T12:06:45.798Z,5.83
2023-02-25T12:18:50.156Z,5.60
2023-02-25T12:25:28.245Z,6.26
2023-02-25T12:40:17.553Z,6.59
2023-02-25T12:57:11.170Z,4.33
2023-02-25T13:01:22.403Z,4.65
2023-02-25T13:08:11.492Z,4.55
2023-02-25T13:11:48.121Z,4.46
2023-02-25T13:14:59.774Z,4.38
2023-02-25T13:19:17.512Z,4.35
2023-02-25T13:26:00.575Z,4.30
2023-02-25T13:29:34.365Z,4.45
2023-02-25T13:45:45.206Z,4.35
2023-02-25T13:49:43.348Z,4.25
2023-02-25T13:53:17.703Z,4.62
2023-02-25T13:57:05.382Z,4.89
2023-02-25T14:01:01.286Z,4.98
2023-02-25T14:05:06.284Z,4.84
2023-02-25T14:08:41.290Z,4.81
2023-02-25T14:12:12.455Z,4.88
2023-02-25T14:15:49.663Z,4.97
2023-02-25T14:19:44.255Z,4.99
2023-02-25T14:27:32.429Z,4.71
2023-02-25T15:43:06.792Z,3.86
2023-02-25T15:58:59.478Z,3.50
2023-02-25T16:06:45.305Z,3.40
2023-02-25T16:10:03.939Z,3.37
2023-02-25T16:13:52.783Z,3.34
2023-02-25T16:17:10.141Z,3.36
2023-02-25T16:20:29.177Z,3.36
2023-02-25T16:23:44.649Z,3.37
2023-02-25T16:27:04.979Z,3.36
2023-02-25T16:30:41.595Z,3.42
2023-02-25T16:34:31.788Z,3.44
2023-02-25T16:37:52.028Z,3.47
2023-02-25T16:41:09.357Z,3.47
2023-02-25T16:44:27.930Z,3.43
2023-02-25T16:47:42.418Z,3.43
2023-02-25T16:55:01.235Z,3.38
2023-02-25T16:58:28.095Z,3.43
2023-02-25T17:01:43.422Z,3.41
2023-02-25T17:04:57.831Z,3.35
2023-02-25T17:08:16.018Z,3.38
2023-02-25T17:15:35.366Z,3.40
2023-02-25T17:18:53.735Z,3.45
2023-02-25T17:22:07.188Z,3.42
2023-02-25T17:25:22.436Z,3.36
2023-02-25T17:28:38.457Z,3.29
2023-02-25T17:31:55.082Z,3.25
2023-02-25T17:35:10.276Z,3.13
2023-02-25T17:38:25.938Z,3.12
2023-02-25T17:41:41.609Z,3.10
2023-02-25T17:44:53.790Z,3.05
2023-02-25T17:55:42.185Z,3.10
2023-02-25T18:02:54.102Z,3.13
2023-02-25T18:16:43.207Z,3.15
2023-02-25T18:19:56.607Z,3.19
2023-02-25T18:36:11.167Z,3.05
2023-02-25T18:43:42.918Z,3.01
2023-02-25T18:51:18.449Z,2.95
2023-02-25T18:54:31.664Z,2.96
2023-02-25T18:57:43.703Z,2.96
2023-02-25T19:01:02.446Z,2.97
2023-02-25T19:04:18.370Z,2.93
2023-02-25T19:07:34.364Z,2.96
2023-02-25T19:10:48.738Z,2.93
2023-02-25T19:14:02.478Z,2.92
2023-02-25T19:17:19.040Z,2.93
2023-02-25T19:20:31.304Z,2.88
2023-02-25T19:23:43.449Z,2.89
2023-02-25T19:26:55.840Z,2.94
2023-02-25T19:30:08.303Z,2.87
2023-02-25T19:33:21.057Z,2.90
2023-02-25T19:36:33.316Z,2.93
2023-02-25T19:39:45.988Z,2.90
2023-02-25T19:42:58.748Z,2.86
2023-02-25T19:46:17.236Z,2.90
2023-02-25T19:49:30.018Z,2.80
2023-02-25T19:52:42.103Z,2.86
2023-02-25T19:55:54.240Z,2.84
2023-02-25T19:59:08.480Z,2.86
2023-02-25T20:02:21.475Z,2.87
2023-02-25T20:05:33.647Z,2.87
2023-02-25T20:08:48.461Z,2.82
2023-02-25T20:12:00.588Z,2.79
2023-02-25T20:15:16.249Z,2.80
2023-02-25T20:18:28.580Z,2.74
2023-02-25T20:21:40.865Z,2.67
2023-02-25T20:24:54.629Z,2.64
2023-02-25T20:28:07.042Z,2.58
2023-02-25T20:31:22.195Z,2.45
2023-02-25T20:34:35.232Z,2.52
2023-02-25T20:37:56.026Z,2.51
2023-02-25T20:41:09.424Z,2.51
2023-02-25T20:44:22.425Z,2.46
2023-02-25T20:47:38.784Z,2.41
2023-02-25T20:50:54.100Z,2.35
2023-02-25T20:54:07.601Z,2.25
2023-02-25T20:57:24.320Z,2.25
2023-02-25T21:00:36.471Z,2.27
2023-02-25T21:03:48.524Z,2.29
2023-02-25T21:07:00.816Z,2.20
2023-02-25T21:10:16.607Z,2.20
2023-02-25T21:13:28.692Z,2.17
2023-02-25T21:16:41.203Z,2.17
2023-02-25T21:19:53.656Z,2.18
2023-02-25T21:23:06.091Z,2.11
2023-02-25T21:26:19.278Z,2.12
2023-02-25T21:29:32.322Z,2.08
2023-02-25T21:32:44.432Z,2.08
2023-02-25T21:36:01.126Z,2.05
2023-02-25T21:39:13.529Z,2.08
2023-02-25T21:42:25.941Z,2.08
2023-02-25T21:45:38.843Z,2.06
2023-02-25T21:48:53.402Z,2.01
2023-02-25T21:56:37.982Z,1.97
2023-02-25T22:03:42.516Z,1.91
2023-02-25T22:06:54.608Z,1.88
2023-02-25T22:10:08.904Z,1.86
2023-02-25T22:13:20.948Z,1.88
2023-02-25T22:20:45.579Z,1.84
2023-02-25T22:24:02.081Z,1.83
2023-02-25T22:38:38.294Z,1.83
2023-02-25T22:45:31.333Z,1.78
2023-02-25T22:48:45.597Z,1.84
2023-02-25T22:52:00.555Z,1.81
2023-02-25T22:55:17.267Z,1.82
2023-02-25T23:16:58.188Z,1.88
2023-02-25T23:24:15.838Z,1.86
2023-02-25T23:34:50.145Z,1.91
2023-02-25T23:38:02.126Z,1.89
2023-02-25T23:44:51.254Z,1.89
2023-02-25T23:52:02.466Z,1.92
2023-02-25T23:59:18.540Z,1.93
